sensor_id;sensor_type;location;lat;lon;timestamp;pressure;altitude;pressure_sealevel;temperature;humidity
32733;BME280;11867;51.198;11.966;2022-12-31T00:01:01;99753.28;;;11.63;92.01
32733;BME280;11867;51.198;11.966;2022-12-31T00:02:02;99762.41;;;11.73;91.74
32733;BME280;11867;51.198;11.966;2022-12-31T00:03:06;99760.78;;;11.58;92.16
32733;BME280;11867;51.198;11.966;2022-12-31T00:04:08;99770.25;;;11.46;92.93
32733;BME280;11867;51.198;11.966;2022-12-31T00:05:11;99763.38;;;11.49;92.88
32733;BME280;11867;51.198;11.966;2022-12-31T00:06:15;99769.03;;;11.52;93.20
32733;BME280;11867;51.198;11.966;2022-12-31T00:07:20;99767.81;;;11.45;93.28
32733;BME280;11867;51.198;11.966;2022-12-31T00:08:23;99767.22;;;11.48;93.30
32733;BME280;11867;51.198;11.966;2022-12-31T00:09:26;99777.97;;;11.58;92.79
32733;BME280;11867;51.198;11.966;2022-12-31T00:10:29;99774.91;;;11.46;93.57
32733;BME280;11867;51.198;11.966;2022-12-31T00:11:33;99772.72;;;11.62;93.23
32733;BME280;11867;51.198;11.966;2022-12-31T00:12:36;99772.53;;;11.72;92.41
32733;BME280;11867;51.198;11.966;2022-12-31T00:13:37;99768.66;;;11.73;92.25
32733;BME280;11867;51.198;11.966;2022-12-31T00:14:40;99769.78;;;11.86;91.77
32733;BME280;11867;51.198;11.966;2022-12-31T00:15:43;99772.41;;;11.77;91.92
32733;BME280;11867;51.198;11.966;2022-12-31T00:16:45;99765.75;;;11.83;91.99
32733;BME280;11867;51.198;11.966;2022-12-31T00:17:47;99771.84;;;11.94;91.49
32733;BME280;11867;51.198;11.966;2022-12-31T00:18:51;99781.25;;;12.02;90.78
32733;BME280;11867;51.198;11.966;2022-12-31T00:19:56;99777.41;;;12.03;90.59
32733;BME280;11867;51.198;11.966;2022-12-31T00:21:03;99778.28;;;11.84;91.41
32733;BME280;11867;51.198;11.966;2022-12-31T00:22:05;99782.94;;;11.84;91.62
32733;BME280;11867;51.198;11.966;2022-12-31T00:23:08;99787.09;;;11.81;92.05
32733;BME280;11867;51.198;11.966;2022-12-31T00:24:12;99782.25;;;11.78;92.34
32733;BME280;11867;51.198;11.966;2022-12-31T00:25:13;99780.59;;;11.77;92.17
32733;BME280;11867;51.198;11.966;2022-12-31T00:26:17;99780.00;;;11.66;92.74
32733;BME280;11867;51.198;11.966;2022-12-31T00:27:21;99785.25;;;11.77;92.87
32733;BME280;11867;51.198;11.966;2022-12-31T00:28:22;99786.78;;;11.83;92.39
32733;BME280;11867;51.198;11.966;2022-12-31T00:29:25;99783.63;;;11.76;92.77
32733;BME280;11867;51.198;11.966;2022-12-31T00:30:27;99787.28;;;11.71;92.37
32733;BME280;11867;51.198;11.966;2022-12-31T00:31:32;99790.69;;;11.63;93.17
32733;BME280;11867;51.198;11.966;2022-12-31T00:32:35;99795.06;;;11.64;93.58
32733;BME280;11867;51.198;11.966;2022-12-31T00:33:37;99792.91;;;11.61;93.61
32733;BME280;11867;51.198;11.966;2022-12-31T00:34:40;99799.41;;;11.65;93.41
32733;BME280;11867;51.198;11.966;2022-12-31T00:35:41;99800.03;;;11.62;93.83
32733;BME280;11867;51.198;11.966;2022-12-31T00:36:44;99812.31;;;11.59;93.68
32733;BME280;11867;51.198;11.966;2022-12-31T00:37:46;99797.66;;;11.55;94.17
32733;BME280;11867;51.198;11.966;2022-12-31T00:38:50;99807.50;;;11.70;93.79
32733;BME280;11867;51.198;11.966;2022-12-31T00:39:53;99799.88;;;11.53;94.64
32733;BME280;11867;51.198;11.966;2022-12-31T00:40:56;99806.06;;;11.59;94.18
32733;BME280;11867;51.198;11.966;2022-12-31T00:41:57;99808.91;;;11.67;93.72
32733;BME280;11867;51.198;11.966;2022-12-31T00:43:00;99811.63;;;11.67;94.02
32733;BME280;11867;51.198;11.966;2022-12-31T00:44:02;99804.16;;;11.73;93.90
32733;BME280;11867;51.198;11.966;2022-12-31T00:45:05;99811.97;;;11.80;93.46
32733;BME280;11867;51.198;11.966;2022-12-31T00:46:07;99806.34;;;11.90;92.69
32733;BME280;11867;51.198;11.966;2022-12-31T00:47:10;99811.56;;;11.86;93.15
32733;BME280;11867;51.198;11.966;2022-12-31T00:48:12;99810.25;;;11.84;93.04
32733;BME280;11867;51.198;11.966;2022-12-31T00:49:14;99816.47;;;11.89;93.01
32733;BME280;11867;51.198;11.966;2022-12-31T00:50:16;99806.25;;;11.95;92.48
32733;BME280;11867;51.198;11.966;2022-12-31T00:51:21;99802.25;;;11.74;93.58
32733;BME280;11867;51.198;11.966;2022-12-31T00:52:23;99810.75;;;11.72;93.85
32733;BME280;11867;51.198;11.966;2022-12-31T00:53:26;99814.38;;;11.67;94.32
32733;BME280;11867;51.198;11.966;2022-12-31T00:54:29;99813.78;;;11.70;94.31
32733;BME280;11867;51.198;11.966;2022-12-31T00:55:32;99809.81;;;11.63;94.42
32733;BME280;11867;51.198;11.966;2022-12-31T00:56:34;99814.34;;;11.54;95.18
32733;BME280;11867;51.198;11.966;2022-12-31T00:57:36;99822.63;;;11.48;95.61
32733;BME280;11867;51.198;11.966;2022-12-31T00:58:38;99827.09;;;11.58;95.20
32733;BME280;11867;51.198;11.966;2022-12-31T00:59:41;99834.31;;;11.68;94.64
32733;BME280;11867;51.198;11.966;2022-12-31T01:00:42;99837.22;;;11.71;94.85
32733;BME280;11867;51.198;11.966;2022-12-31T01:01:45;99836.59;;;11.61;95.23
32733;BME280;11867;51.198;11.966;2022-12-31T01:02:48;99837.22;;;11.71;94.97
32733;BME280;11867;51.198;11.966;2022-12-31T01:03:51;99851.09;;;11.75;94.78
32733;BME280;11867;51.198;11.966;2022-12-31T01:04:54;99840.09;;;11.80;94.54
32733;BME280;11867;51.198;11.966;2022-12-31T01:05:57;99840.25;;;11.89;94.23
32733;BME280;11867;51.198;11.966;2022-12-31T01:07:00;99834.25;;;12.01;93.89
32733;BME280;11867;51.198;11.966;2022-12-31T01:08:02;99834.06;;;12.11;93.25
32733;BME280;11867;51.198;11.966;2022-12-31T01:09:05;99837.94;;;12.10;92.80
32733;BME280;11867;51.198;11.966;2022-12-31T01:10:08;99837.31;;;11.99;93.76
32733;BME280;11867;51.198;11.966;2022-12-31T01:11:12;99843.78;;;11.89;94.48
32733;BME280;11867;51.198;11.966;2022-12-31T01:12:19;99831.75;;;12.04;93.66
32733;BME280;11867;51.198;11.966;2022-12-31T01:13:22;99844.41;;;12.14;93.54
32733;BME280;11867;51.198;11.966;2022-12-31T01:14:23;99837.22;;;12.04;93.99
32733;BME280;11867;51.198;11.966;2022-12-31T01:15:26;99844.22;;;12.24;93.13
32733;BME280;11867;51.198;11.966;2022-12-31T01:16:29;99842.38;;;12.34;92.40
32733;BME280;11867;51.198;11.966;2022-12-31T01:17:33;99851.28;;;12.25;92.53
32733;BME280;11867;51.198;11.966;2022-12-31T01:18:34;99854.53;;;12.14;93.32
32733;BME280;11867;51.198;11.966;2022-12-31T01:19:37;99854.81;;;11.98;94.31
32733;BME280;11867;51.198;11.966;2022-12-31T01:20:41;99855.25;;;12.05;94.40
32733;BME280;11867;51.198;11.966;2022-12-31T01:21:47;99856.13;;;12.01;94.41
32733;BME280;11867;51.198;11.966;2022-12-31T01:22:48;99854.41;;;12.05;94.56
32733;BME280;11867;51.198;11.966;2022-12-31T01:23:51;99854.84;;;12.12;94.37
32733;BME280;11867;51.198;11.966;2022-12-31T01:24:52;99860.00;;;12.14;94.47
32733;BME280;11867;51.198;11.966;2022-12-31T01:25:55;99859.28;;;12.08;95.14
32733;BME280;11867;51.198;11.966;2022-12-31T01:27:00;99862.72;;;12.00;95.40
32733;BME280;11867;51.198;11.966;2022-12-31T01:28:03;99859.53;;;11.93;95.85
32733;BME280;11867;51.198;11.966;2022-12-31T01:29:06;99866.66;;;11.94;96.25
32733;BME280;11867;51.198;11.966;2022-12-31T01:30:12;99864.38;;;11.82;96.88
32733;BME280;11867;51.198;11.966;2022-12-31T01:31:15;99867.97;;;11.96;96.26
32733;BME280;11867;51.198;11.966;2022-12-31T01:32:18;99868.47;;;11.98;96.38
32733;BME280;11867;51.198;11.966;2022-12-31T01:33:20;99863.22;;;12.02;96.46
32733;BME280;11867;51.198;11.966;2022-12-31T01:34:22;99865.00;;;11.93;96.78
32733;BME280;11867;51.198;11.966;2022-12-31T01:35:24;99872.00;;;11.99;96.58
32733;BME280;11867;51.198;11.966;2022-12-31T01:36:28;99870.72;;;12.10;96.11
32733;BME280;11867;51.198;11.966;2022-12-31T01:37:29;99878.31;;;12.13;95.57
32733;BME280;11867;51.198;11.966;2022-12-31T01:38:33;99876.16;;;11.96;96.29
32733;BME280;11867;51.198;11.966;2022-12-31T01:39:34;99884.47;;;12.05;96.21
32733;BME280;11867;51.198;11.966;2022-12-31T01:40:38;99875.69;;;12.08;95.69
32733;BME280;11867;51.198;11.966;2022-12-31T01:41:42;99885.28;;;12.05;95.91
32733;BME280;11867;51.198;11.966;2022-12-31T01:42:53;99862.94;;;11.84;96.79
32733;BME280;11867;51.198;11.966;2022-12-31T01:43:57;99875.44;;;11.90;97.28
32733;BME280;11867;51.198;11.966;2022-12-31T01:45:00;99868.19;;;12.00;96.64
32733;BME280;11867;51.198;11.966;2022-12-31T01:46:01;99874.72;;;11.99;96.28
32733;BME280;11867;51.198;11.966;2022-12-31T01:47:04;99871.31;;;12.07;95.67
32733;BME280;11867;51.198;11.966;2022-12-31T01:48:14;99868.47;;;11.98;96.28
32733;BME280;11867;51.198;11.966;2022-12-31T01:49:21;99862.50;;;11.96;96.47
32733;BME280;11867;51.198;11.966;2022-12-31T01:50:26;99859.19;;;11.99;96.39
32733;BME280;11867;51.198;11.966;2022-12-31T01:51:32;99855.81;;;11.88;96.58
32733;BME280;11867;51.198;11.966;2022-12-31T01:52:38;99861.56;;;11.87;97.30
32733;BME280;11867;51.198;11.966;2022-12-31T01:53:41;99857.81;;;11.83;97.63
32733;BME280;11867;51.198;11.966;2022-12-31T01:54:46;99840.28;;;11.84;97.76
32733;BME280;11867;51.198;11.966;2022-12-31T01:55:54;99850.53;;;11.78;98.13
32733;BME280;11867;51.198;11.966;2022-12-31T01:56:57;99855.94;;;11.97;96.97
32733;BME280;11867;51.198;11.966;2022-12-31T01:58:04;99849.97;;;11.95;97.35
32733;BME280;11867;51.198;11.966;2022-12-31T01:59:09;99856.84;;;12.06;97.00
32733;BME280;11867;51.198;11.966;2022-12-31T02:00:12;99851.56;;;11.96;96.87
32733;BME280;11867;51.198;11.966;2022-12-31T02:01:19;99850.16;;;11.99;97.17
32733;BME280;11867;51.198;11.966;2022-12-31T02:02:22;99859.56;;;12.06;96.73
32733;BME280;11867;51.198;11.966;2022-12-31T02:03:26;99859.16;;;12.13;96.50
32733;BME280;11867;51.198;11.966;2022-12-31T02:04:29;99844.59;;;12.31;96.03
32733;BME280;11867;51.198;11.966;2022-12-31T02:05:37;99849.47;;;12.35;95.25
32733;BME280;11867;51.198;11.966;2022-12-31T02:06:42;99858.25;;;12.31;95.19
32733;BME280;11867;51.198;11.966;2022-12-31T02:07:47;99860.41;;;12.35;95.19
32733;BME280;11867;51.198;11.966;2022-12-31T02:08:49;99855.84;;;12.44;95.30
32733;BME280;11867;51.198;11.966;2022-12-31T02:09:52;99861.28;;;12.44;95.24
32733;BME280;11867;51.198;11.966;2022-12-31T02:10:54;99867.06;;;12.56;95.36
32733;BME280;11867;51.198;11.966;2022-12-31T02:11:56;99859.56;;;12.48;95.18
32733;BME280;11867;51.198;11.966;2022-12-31T02:12:58;99859.69;;;12.43;95.95
32733;BME280;11867;51.198;11.966;2022-12-31T02:14:04;99859.69;;;12.43;96.43
32733;BME280;11867;51.198;11.966;2022-12-31T02:15:07;99859.56;;;12.48;95.89
32733;BME280;11867;51.198;11.966;2022-12-31T02:16:17;99856.47;;;12.41;96.45
32733;BME280;11867;51.198;11.966;2022-12-31T02:17:26;99866.97;;;12.47;95.73
32733;BME280;11867;51.198;11.966;2022-12-31T02:18:35;99858.59;;;12.30;96.93
32733;BME280;11867;51.198;11.966;2022-12-31T02:20:00;99847.22;;;12.23;97.40
32733;BME280;11867;51.198;11.966;2022-12-31T02:21:33;99847.03;;;12.47;96.40
32733;BME280;11867;51.198;11.966;2022-12-31T02:22:56;99848.75;;;12.43;96.49
32733;BME280;11867;51.198;11.966;2022-12-31T02:24:20;99853.47;;;12.65;95.42
32733;BME280;11867;51.198;11.966;2022-12-31T02:25:46;99850.44;;;12.52;95.83
32733;BME280;11867;51.198;11.966;2022-12-31T02:26:57;99859.78;;;12.65;95.66
32733;BME280;11867;51.198;11.966;2022-12-31T02:28:12;99852.47;;;12.61;95.39
32733;BME280;11867;51.198;11.966;2022-12-31T02:31:00;99850.44;;;12.66;95.29
32733;BME280;11867;51.198;11.966;2022-12-31T02:32:08;99851.66;;;12.74;95.52
32733;BME280;11867;51.198;11.966;2022-12-31T02:33:16;99853.66;;;12.82;94.62
32733;BME280;11867;51.198;11.966;2022-12-31T02:34:26;99856.19;;;12.79;94.90
32733;BME280;11867;51.198;11.966;2022-12-31T02:35:38;99866.53;;;12.82;94.78
32733;BME280;11867;51.198;11.966;2022-12-31T02:36:46;99861.44;;;12.89;94.71
32733;BME280;11867;51.198;11.966;2022-12-31T02:37:52;99861.09;;;13.04;94.27
32733;BME280;11867;51.198;11.966;2022-12-31T02:38:59;99869.06;;;13.15;93.12
32733;BME280;11867;51.198;11.966;2022-12-31T02:40:09;99857.75;;;13.07;93.59
32733;BME280;11867;51.198;11.966;2022-12-31T02:41:15;99861.97;;;13.13;93.54
32733;BME280;11867;51.198;11.966;2022-12-31T02:42:32;99859.53;;;13.12;93.08
32733;BME280;11867;51.198;11.966;2022-12-31T02:43:34;99851.88;;;13.23;93.04
32733;BME280;11867;51.198;11.966;2022-12-31T02:44:38;99848.34;;;13.36;92.39
32733;BME280;11867;51.198;11.966;2022-12-31T02:45:44;99847.06;;;13.20;92.59
32733;BME280;11867;51.198;11.966;2022-12-31T02:46:57;99850.75;;;13.01;94.03
32733;BME280;11867;51.198;11.966;2022-12-31T02:48:15;99845.44;;;12.96;94.45
32733;BME280;11867;51.198;11.966;2022-12-31T02:49:23;99840.53;;;13.07;93.97
32733;BME280;11867;51.198;11.966;2022-12-31T02:50:35;99842.25;;;13.03;94.02
32733;BME280;11867;51.198;11.966;2022-12-31T02:51:44;99829.91;;;12.91;94.58
32733;BME280;11867;51.198;11.966;2022-12-31T02:52:57;99829.81;;;12.97;94.78
32733;BME280;11867;51.198;11.966;2022-12-31T02:54:14;99842.22;;;12.80;95.70
32733;BME280;11867;51.198;11.966;2022-12-31T02:55:24;99836.94;;;12.84;95.39
32733;BME280;11867;51.198;11.966;2022-12-31T02:56:36;99850.00;;;12.87;95.37
32733;BME280;11867;51.198;11.966;2022-12-31T02:57:43;99848.63;;;12.76;96.15
32733;BME280;11867;51.198;11.966;2022-12-31T02:58:56;99842.28;;;12.89;95.36
32733;BME280;11867;51.198;11.966;2022-12-31T03:00:19;99832.16;;;12.89;95.40
32733;BME280;11867;51.198;11.966;2022-12-31T03:01:42;99825.28;;;12.92;95.20
32733;BME280;11867;51.198;11.966;2022-12-31T03:03:06;99817.56;;;12.94;95.23
32733;BME280;11867;51.198;11.966;2022-12-31T03:04:11;99813.69;;;12.95;95.28
32733;BME280;11867;51.198;11.966;2022-12-31T03:05:33;99825.63;;;12.99;95.12
32733;BME280;11867;51.198;11.966;2022-12-31T03:06:39;99811.34;;;13.02;95.03
32733;BME280;11867;51.198;11.966;2022-12-31T03:07:43;99822.59;;;13.01;95.13
32733;BME280;11867;51.198;11.966;2022-12-31T03:08:45;99813.34;;;13.10;94.74
32733;BME280;11867;51.198;11.966;2022-12-31T03:10:07;99824.41;;;13.05;94.88
32733;BME280;11867;51.198;11.966;2022-12-31T03:11:10;99832.50;;;13.10;94.54
32733;BME280;11867;51.198;11.966;2022-12-31T03:12:33;99827.34;;;13.09;94.76
32733;BME280;11867;51.198;11.966;2022-12-31T03:13:47;99832.00;;;13.08;94.85
32733;BME280;11867;51.198;11.966;2022-12-31T03:14:48;99824.66;;;13.18;94.62
32733;BME280;11867;51.198;11.966;2022-12-31T03:15:51;99825.91;;;13.11;94.49
32733;BME280;11867;51.198;11.966;2022-12-31T03:16:53;99836.03;;;13.11;94.19
32733;BME280;11867;51.198;11.966;2022-12-31T03:17:58;99820.28;;;13.17;94.79
32733;BME280;11867;51.198;11.966;2022-12-31T03:19:02;99825.69;;;13.08;94.73
32733;BME280;11867;51.198;11.966;2022-12-31T03:20:25;99819.69;;;13.20;94.41
32733;BME280;11867;51.198;11.966;2022-12-31T03:21:46;99827.75;;;13.25;93.41
32733;BME280;11867;51.198;11.966;2022-12-31T03:23:16;99831.44;;;13.20;94.56
32733;BME280;11867;51.198;11.966;2022-12-31T03:24:21;99821.19;;;13.26;94.45
32733;BME280;11867;51.198;11.966;2022-12-31T03:25:42;99820.31;;;13.39;93.00
32733;BME280;11867;51.198;11.966;2022-12-31T03:26:44;99827.09;;;13.19;94.17
32733;BME280;11867;51.198;11.966;2022-12-31T03:27:46;99822.78;;;13.27;94.15
32733;BME280;11867;51.198;11.966;2022-12-31T03:28:48;99827.16;;;13.28;93.46
32733;BME280;11867;51.198;11.966;2022-12-31T03:29:51;99830.25;;;13.12;94.76
32733;BME280;11867;51.198;11.966;2022-12-31T03:30:55;99833.97;;;13.17;94.43
32733;BME280;11867;51.198;11.966;2022-12-31T03:31:58;99831.38;;;13.11;94.53
32733;BME280;11867;51.198;11.966;2022-12-31T03:33:00;99831.38;;;13.11;94.80
32733;BME280;11867;51.198;11.966;2022-12-31T03:34:04;99833.09;;;13.07;95.45
32733;BME280;11867;51.198;11.966;2022-12-31T03:35:07;99828.00;;;13.15;95.52
32733;BME280;11867;51.198;11.966;2022-12-31T03:36:12;99829.19;;;13.22;94.94
32733;BME280;11867;51.198;11.966;2022-12-31T03:37:15;99817.63;;;13.25;94.90
32733;BME280;11867;51.198;11.966;2022-12-31T03:38:17;99825.69;;;13.44;93.97
32733;BME280;11867;51.198;11.966;2022-12-31T03:39:20;99818.38;;;13.62;93.39
32733;BME280;11867;51.198;11.966;2022-12-31T03:40:23;99813.81;;;13.58;93.14
32733;BME280;11867;51.198;11.966;2022-12-31T03:41:28;99808.09;;;13.68;92.73
32733;BME280;11867;51.198;11.966;2022-12-31T03:42:30;99800.25;;;13.75;92.16
32733;BME280;11867;51.198;11.966;2022-12-31T03:43:32;99805.22;;;13.73;92.18
32733;BME280;11867;51.198;11.966;2022-12-31T03:44:34;99815.31;;;13.64;92.62
32733;BME280;11867;51.198;11.966;2022-12-31T03:45:37;99799.81;;;13.59;93.03
32733;BME280;11867;51.198;11.966;2022-12-31T03:46:39;99804.91;;;13.75;92.68
32733;BME280;11867;51.198;11.966;2022-12-31T03:47:41;99794.88;;;13.70;92.61
32733;BME280;11867;51.198;11.966;2022-12-31T03:48:44;99805.06;;;13.47;93.85
32733;BME280;11867;51.198;11.966;2022-12-31T03:49:48;99803.63;;;13.49;93.97
32733;BME280;11867;51.198;11.966;2022-12-31T03:50:50;99791.53;;;13.42;94.30
32733;BME280;11867;51.198;11.966;2022-12-31T03:51:52;99787.28;;;13.36;94.75
32733;BME280;11867;51.198;11.966;2022-12-31T03:52:54;99783.44;;;13.37;94.92
32733;BME280;11867;51.198;11.966;2022-12-31T03:53:57;99794.06;;;13.38;95.00
32733;BME280;11867;51.198;11.966;2022-12-31T03:54:58;99796.91;;;13.33;95.23
32733;BME280;11867;51.198;11.966;2022-12-31T03:56:02;99791.81;;;13.40;95.11
32733;BME280;11867;51.198;11.966;2022-12-31T03:57:04;99797.91;;;13.37;95.05
32733;BME280;11867;51.198;11.966;2022-12-31T03:58:06;99794.56;;;13.40;95.37
32733;BME280;11867;51.198;11.966;2022-12-31T03:59:09;99796.34;;;13.45;95.35
32733;BME280;11867;51.198;11.966;2022-12-31T04:00:13;99791.56;;;13.50;94.92
32733;BME280;11867;51.198;11.966;2022-12-31T04:01:17;99798.25;;;13.36;95.34
32733;BME280;11867;51.198;11.966;2022-12-31T04:02:19;99802.59;;;13.37;95.72
32733;BME280;11867;51.198;11.966;2022-12-31T04:03:28;99791.56;;;13.50;95.52
32733;BME280;11867;51.198;11.966;2022-12-31T04:04:31;99792.38;;;13.51;94.83
32733;BME280;11867;51.198;11.966;2022-12-31T04:05:34;99784.47;;;13.49;94.88
32733;BME280;11867;51.198;11.966;2022-12-31T04:06:36;99779.75;;;13.41;95.87
32733;BME280;11867;51.198;11.966;2022-12-31T04:07:38;99774.00;;;13.51;95.24
32733;BME280;11867;51.198;11.966;2022-12-31T04:08:41;99792.81;;;13.44;95.42
32733;BME280;11867;51.198;11.966;2022-12-31T04:09:42;99788.34;;;13.48;95.61
32733;BME280;11867;51.198;11.966;2022-12-31T04:10:45;99788.41;;;13.66;94.92
32733;BME280;11867;51.198;11.966;2022-12-31T04:11:46;99791.56;;;13.82;94.03
32733;BME280;11867;51.198;11.966;2022-12-31T04:12:49;99790.78;;;13.90;93.50
32733;BME280;11867;51.198;11.966;2022-12-31T04:13:51;99790.00;;;13.89;92.85
32733;BME280;11867;51.198;11.966;2022-12-31T04:14:53;99790.59;;;13.86;93.27
32733;BME280;11867;51.198;11.966;2022-12-31T04:15:57;99799.56;;;13.69;94.35
32733;BME280;11867;51.198;11.966;2022-12-31T04:16:59;99791.00;;;13.62;94.44
32733;BME280;11867;51.198;11.966;2022-12-31T04:18:02;99801.38;;;13.51;95.63
32733;BME280;11867;51.198;11.966;2022-12-31T04:19:04;99785.81;;;13.61;95.57
32733;BME280;11867;51.198;11.966;2022-12-31T04:20:07;99791.91;;;13.58;95.17
32733;BME280;11867;51.198;11.966;2022-12-31T04:21:11;99790.66;;;13.64;95.18
32733;BME280;11867;51.198;11.966;2022-12-31T04:22:13;99803.47;;;13.77;94.19
32733;BME280;11867;51.198;11.966;2022-12-31T04:23:16;99798.75;;;13.69;94.43
32733;BME280;11867;51.198;11.966;2022-12-31T04:24:17;99798.91;;;13.41;96.53
32733;BME280;11867;51.198;11.966;2022-12-31T04:25:20;99797.34;;;13.49;95.91
32733;BME280;11867;51.198;11.966;2022-12-31T04:26:22;99793.94;;;13.43;96.12
32733;BME280;11867;51.198;11.966;2022-12-31T04:27:24;99795.50;;;13.36;97.00
32733;BME280;11867;51.198;11.966;2022-12-31T04:28:26;99796.50;;;13.40;97.01
32733;BME280;11867;51.198;11.966;2022-12-31T04:29:28;99793.06;;;13.57;96.44
32733;BME280;11867;51.198;11.966;2022-12-31T04:30:30;99778.88;;;13.55;96.19
32733;BME280;11867;51.198;11.966;2022-12-31T04:31:33;99784.38;;;13.63;95.99
32733;BME280;11867;51.198;11.966;2022-12-31T04:32:35;99782.91;;;13.57;95.90
32733;BME280;11867;51.198;11.966;2022-12-31T04:33:38;99780.34;;;13.61;95.55
32733;BME280;11867;51.198;11.966;2022-12-31T04:34:39;99795.53;;;13.67;95.88
32733;BME280;11867;51.198;11.966;2022-12-31T04:35:42;99785.25;;;13.72;95.26
32733;BME280;11867;51.198;11.966;2022-12-31T04:36:45;99786.78;;;13.56;96.44
32733;BME280;11867;51.198;11.966;2022-12-31T04:37:48;99779.66;;;13.55;96.22
32733;BME280;11867;51.198;11.966;2022-12-31T04:38:50;99792.41;;;13.60;96.43
32733;BME280;11867;51.198;11.966;2022-12-31T04:39:53;99794.63;;;13.49;96.54
32733;BME280;11867;51.198;11.966;2022-12-31T04:40:57;99794.69;;;13.35;97.98
32733;BME280;11867;51.198;11.966;2022-12-31T04:42:18;99794.69;;;13.35;98.35
32733;BME280;11867;51.198;11.966;2022-12-31T04:43:20;99786.69;;;13.47;97.95
32733;BME280;11867;51.198;11.966;2022-12-31T04:44:22;99782.22;;;13.51;97.59
32733;BME280;11867;51.198;11.966;2022-12-31T04:45:24;99781.03;;;13.66;96.79
32733;BME280;11867;51.198;11.966;2022-12-31T04:46:27;99786.66;;;13.70;96.03
32733;BME280;11867;51.198;11.966;2022-12-31T04:47:30;99788.38;;;13.57;96.85
32733;BME280;11867;51.198;11.966;2022-12-31T04:48:32;99786.28;;;13.54;97.17
32733;BME280;11867;51.198;11.966;2022-12-31T04:49:34;99781.34;;;13.65;96.56
32733;BME280;11867;51.198;11.966;2022-12-31T04:50:37;99789.28;;;13.75;96.05
32733;BME280;11867;51.198;11.966;2022-12-31T04:51:38;99783.09;;;13.61;96.34
32733;BME280;11867;51.198;11.966;2022-12-31T04:52:42;99791.31;;;13.61;96.81
32733;BME280;11867;51.198;11.966;2022-12-31T04:53:44;99783.84;;;13.52;97.11
32733;BME280;11867;51.198;11.966;2022-12-31T04:54:46;99799.28;;;13.48;97.74
32733;BME280;11867;51.198;11.966;2022-12-31T04:55:49;99808.53;;;13.61;96.97
32733;BME280;11867;51.198;11.966;2022-12-31T04:56:50;99809.59;;;13.51;97.41
32733;BME280;11867;51.198;11.966;2022-12-31T04:57:53;99800.31;;;13.61;96.97
32733;BME280;11867;51.198;11.966;2022-12-31T04:58:55;99794.75;;;13.75;96.47
32733;BME280;11867;51.198;11.966;2022-12-31T04:59:57;99788.56;;;13.61;96.70
32733;BME280;11867;51.198;11.966;2022-12-31T05:00:59;99790.81;;;13.59;96.94
32733;BME280;11867;51.198;11.966;2022-12-31T05:02:02;99789.19;;;13.58;97.26
32733;BME280;11867;51.198;11.966;2022-12-31T05:03:05;99791.91;;;13.58;97.06
32733;BME280;11867;51.198;11.966;2022-12-31T05:04:06;99795.66;;;13.62;97.11
32733;BME280;11867;51.198;11.966;2022-12-31T05:05:09;99796.63;;;13.66;96.63
32733;BME280;11867;51.198;11.966;2022-12-31T05:06:12;99798.31;;;13.76;96.33
32733;BME280;11867;51.198;11.966;2022-12-31T05:07:15;99805.88;;;13.79;95.77
32733;BME280;11867;51.198;11.966;2022-12-31T05:08:19;99801.34;;;13.74;96.06
32733;BME280;11867;51.198;11.966;2022-12-31T05:09:20;99803.69;;;13.89;95.42
32733;BME280;11867;51.198;11.966;2022-12-31T05:10:24;99803.03;;;13.92;94.80
32733;BME280;11867;51.198;11.966;2022-12-31T05:11:25;99795.91;;;13.83;95.48
32733;BME280;11867;51.198;11.966;2022-12-31T05:12:28;99795.81;;;13.97;94.89
32733;BME280;11867;51.198;11.966;2022-12-31T05:13:32;99800.03;;;14.03;94.39
32733;BME280;11867;51.198;11.966;2022-12-31T05:14:34;99800.03;;;14.03;94.56
32733;BME280;11867;51.198;11.966;2022-12-31T05:15:37;99799.84;;;13.99;94.48
32733;BME280;11867;51.198;11.966;2022-12-31T05:16:39;99794.91;;;14.10;94.43
32733;BME280;11867;51.198;11.966;2022-12-31T05:17:42;99785.41;;;14.16;93.76
32733;BME280;11867;51.198;11.966;2022-12-31T05:18:43;99796.50;;;14.11;94.24
32733;BME280;11867;51.198;11.966;2022-12-31T05:19:46;99793.63;;;14.16;93.67
32733;BME280;11867;51.198;11.966;2022-12-31T05:20:47;99784.56;;;14.07;93.81
32733;BME280;11867;51.198;11.966;2022-12-31T05:21:50;99783.19;;;13.87;94.93
32733;BME280;11867;51.198;11.966;2022-12-31T05:23:06;99783.72;;;13.98;94.63
32733;BME280;11867;51.198;11.966;2022-12-31T05:24:10;99781.13;;;13.92;94.57
32733;BME280;11867;51.198;11.966;2022-12-31T05:25:12;99782.09;;;13.97;94.69
32733;BME280;11867;51.198;11.966;2022-12-31T05:26:14;99783.25;;;14.04;94.30
32733;BME280;11867;51.198;11.966;2022-12-31T05:27:16;99785.63;;;13.88;94.82
32733;BME280;11867;51.198;11.966;2022-12-31T05:28:19;99774.69;;;13.97;94.65
32733;BME280;11867;51.198;11.966;2022-12-31T05:29:21;99768.78;;;14.12;93.69
32733;BME280;11867;51.198;11.966;2022-12-31T05:30:23;99778.88;;;13.95;94.44
32733;BME280;11867;51.198;11.966;2022-12-31T05:31:26;99772.78;;;13.98;94.79
32733;BME280;11867;51.198;11.966;2022-12-31T05:32:28;99769.53;;;13.96;94.86
32733;BME280;11867;51.198;11.966;2022-12-31T05:33:30;99776.16;;;14.03;94.18
32733;BME280;11867;51.198;11.966;2022-12-31T05:34:33;99773.28;;;14.08;94.11
32733;BME280;11867;51.198;11.966;2022-12-31T05:35:34;99783.44;;;14.08;94.04
32733;BME280;11867;51.198;11.966;2022-12-31T05:36:37;99772.31;;;14.13;93.89
32733;BME280;11867;51.198;11.966;2022-12-31T05:37:38;99768.78;;;14.21;93.25
32733;BME280;11867;51.198;11.966;2022-12-31T05:38:42;99780.56;;;14.22;92.81
32733;BME280;11867;51.198;11.966;2022-12-31T05:39:46;99772.88;;;14.32;92.33
32733;BME280;11867;51.198;11.966;2022-12-31T05:40:47;99778.84;;;14.35;92.29